createdAt,value
2018-11-13T00:00:00.701Z,0.00
2018-11-13T00:01:00.692Z,0.00
2018-11-13T00:02:00.682Z,0.00
2018-11-13T00:03:00.675Z,0.00
2018-11-13T00:04:00.672Z,0.00
2018-11-13T00:05:00.665Z,0.00
2018-11-13T00:06:00.656Z,0.00
2018-11-13T00:07:00.649Z,0.00
2018-11-13T00:08:00.637Z,0.00
2018-11-13T00:09:00.631Z,0.00
2018-11-13T00:10:00.624Z,0.00
2018-11-13T00:11:00.616Z,0.00
2018-11-13T00:12:00.613Z,0.00
2018-11-13T00:13:00.608Z,0.00
2018-11-13T00:14:00.599Z,0.00
2018-11-13T00:15:00.592Z,0.00
2018-11-13T00:16:00.578Z,0.00
2018-11-13T00:17:00.574Z,0.00
2018-11-13T00:18:00.568Z,0.00
2018-11-13T00:19:00.564Z,0.00
2018-11-13T00:20:00.551Z,0.00
2018-11-13T00:21:00.543Z,0.00
2018-11-13T00:22:00.535Z,0.00
2018-11-13T00:23:00.532Z,0.00
2018-11-13T00:24:00.584Z,0.00
2018-11-13T00:25:00.519Z,0.00
2018-11-13T00:26:00.511Z,0.00
2018-11-13T00:27:00.504Z,0.00
2018-11-13T00:28:00.491Z,0.00
2018-11-13T00:29:00.485Z,0.00
2018-11-13T00:30:00.476Z,0.00
2018-11-13T00:31:00.470Z,0.00
2018-11-13T00:32:00.466Z,0.00
2018-11-13T00:33:00.467Z,0.00
2018-11-13T00:34:00.447Z,0.00
2018-11-13T00:35:00.443Z,0.00
2018-11-13T00:36:00.451Z,0.00
2018-11-13T00:37:00.429Z,0.00
2018-11-13T00:38:00.422Z,0.00
2018-11-13T00:39:00.453Z,0.00
2018-11-13T00:40:00.403Z,0.00
2018-11-13T00:41:00.395Z,0.00
2018-11-13T00:42:00.387Z,0.00
2018-11-13T00:43:00.380Z,0.00
2018-11-13T00:44:00.377Z,0.00
2018-11-13T00:45:00.370Z,0.00
2018-11-13T00:46:00.464Z,0.00
2018-11-13T00:47:00.354Z,0.00
2018-11-13T00:48:00.342Z,0.00
2018-11-13T00:49:00.586Z,0.00
2018-11-13T00:50:00.333Z,0.00
2018-11-13T00:51:00.324Z,0.00
2018-11-13T00:52:00.312Z,0.00
2018-11-13T00:53:00.304Z,0.00
2018-11-13T00:54:00.297Z,0.00
2018-11-13T00:55:00.416Z,0.00
2018-11-13T00:56:00.288Z,0.00
2018-11-13T00:57:00.280Z,0.00
2018-11-13T00:58:00.274Z,0.00
2018-11-13T00:59:00.267Z,0.00
2018-11-13T01:00:00.254Z,0.00
2018-11-13T01:01:00.248Z,0.00
2018-11-13T01:02:00.296Z,0.00
2018-11-13T01:03:00.578Z,0.00
2018-11-13T01:04:00.228Z,0.00
2018-11-13T01:05:00.258Z,0.00
2018-11-13T01:06:00.209Z,0.00
2018-11-13T01:07:00.203Z,0.00
2018-11-13T01:08:00.198Z,0.00
2018-11-13T01:09:00.193Z,0.00
2018-11-13T01:10:00.186Z,0.00
2018-11-13T01:11:00.180Z,0.00
2018-11-13T01:12:00.169Z,0.00
2018-11-13T01:13:00.158Z,0.00
2018-11-13T01:14:00.156Z,0.00
2018-11-13T01:15:00.152Z,0.00
2018-11-13T01:16:00.141Z,0.00
2018-11-13T01:17:00.135Z,0.00
2018-11-13T01:18:00.130Z,0.00
2018-11-13T01:19:00.142Z,0.00
2018-11-13T01:20:00.109Z,0.00
2018-11-13T01:21:00.100Z,0.00
2018-11-13T01:22:00.099Z,0.00
2018-11-13T01:23:00.092Z,0.00
2018-11-13T01:24:00.156Z,0.00
2018-11-13T01:25:00.073Z,0.00
2018-11-13T01:26:00.068Z,0.00
2018-11-13T01:27:00.058Z,0.00
2018-11-13T01:28:00.053Z,0.00
2018-11-13T01:29:00.046Z,0.00
2018-11-13T01:30:00.064Z,0.00
2018-11-13T01:31:00.033Z,0.00
2018-11-13T01:32:00.021Z,0.00
2018-11-13T01:33:00.015Z,0.00
2018-11-13T01:34:00.014Z,0.00
2018-11-13T01:35:00.000Z,0.00
2018-11-13T01:35:59.997Z,0.00
2018-11-13T01:36:59.989Z,0.00
2018-11-13T01:37:59.978Z,0.00
2018-11-13T01:38:59.973Z,0.00
2018-11-13T01:39:59.970Z,0.00
2018-11-13T01:40:59.963Z,0.00
2018-11-13T01:41:59.952Z,0.00
2018-11-13T01:42:59.945Z,0.00
2018-11-13T01:43:59.934Z,0.00
2018-11-13T01:44:59.926Z,0.00
2018-11-13T01:45:59.919Z,0.00
2018-11-13T01:46:59.918Z,0.00
2018-11-13T01:47:59.923Z,0.00
2018-11-13T01:48:59.902Z,0.00
2018-11-13T01:49:59.895Z,0.00
2018-11-13T01:50:59.887Z,0.00
2018-11-13T01:51:59.876Z,0.00
2018-11-13T01:52:59.868Z,0.00
2018-11-13T01:53:59.892Z,0.00
2018-11-13T01:54:59.859Z,0.00
2018-11-13T01:55:59.845Z,0.00
2018-11-13T01:56:59.846Z,0.00
2018-11-13T01:57:59.832Z,0.00
2018-11-13T01:58:59.825Z,0.00
2018-11-13T01:59:59.821Z,0.00
2018-11-13T02:00:59.813Z,0.00
2018-11-13T02:01:59.808Z,0.00
2018-11-13T02:02:59.800Z,0.00
2018-11-13T02:03:59.790Z,0.00
2018-11-13T02:04:59.780Z,0.00
2018-11-13T02:05:59.774Z,0.00
2018-11-13T02:06:59.768Z,0.00
2018-11-13T02:07:59.764Z,0.00
2018-11-13T02:08:59.757Z,0.00
2018-11-13T02:09:59.745Z,0.00
2018-11-13T02:10:59.737Z,0.00
2018-11-13T02:11:59.734Z,0.00
2018-11-13T02:12:59.729Z,0.00
2018-11-13T02:13:59.719Z,0.00
2018-11-13T02:14:59.712Z,0.00
2018-11-13T02:15:59.699Z,0.00
2018-11-13T02:16:59.693Z,0.00
2018-11-13T02:17:59.687Z,0.00
2018-11-13T02:18:59.678Z,0.00
2018-11-13T02:19:59.676Z,0.00
2018-11-13T02:20:59.669Z,0.00
2018-11-13T02:21:59.660Z,0.00
2018-11-13T02:22:59.653Z,0.00
2018-11-13T02:23:59.641Z,0.00
2018-11-13T02:24:59.636Z,0.00
2018-11-13T02:25:59.632Z,0.00
2018-11-13T02:26:59.625Z,0.00
2018-11-13T02:27:59.611Z,0.00
2018-11-13T02:28:59.604Z,0.00
2018-11-13T02:29:59.597Z,0.00
2018-11-13T02:30:59.590Z,0.00
2018-11-13T02:31:59.586Z,0.00
2018-11-13T02:32:59.580Z,0.00
2018-11-13T02:33:59.573Z,0.00
2018-11-13T02:34:59.566Z,0.00
2018-11-13T02:35:59.555Z,0.00
2018-11-13T02:36:59.545Z,0.00
2018-11-13T02:37:59.539Z,0.00
2018-11-13T02:38:59.530Z,0.00
2018-11-13T02:39:59.528Z,0.00
2018-11-13T02:40:59.520Z,0.00
2018-11-13T02:41:59.508Z,0.00
2018-11-13T02:42:59.501Z,0.00
2018-11-13T02:43:59.498Z,0.00
2018-11-13T02:44:59.490Z,0.00
2018-11-13T02:45:59.484Z,0.00
2018-11-13T02:46:59.477Z,0.00
2018-11-13T02:47:59.464Z,0.00
2018-11-13T02:48:59.457Z,0.00
2018-11-13T02:49:59.449Z,0.00
2018-11-13T02:50:59.443Z,0.00
2018-11-13T02:51:59.437Z,0.00
2018-11-13T02:52:59.430Z,0.00
2018-11-13T02:53:59.423Z,0.00
2018-11-13T02:54:59.417Z,0.00
2018-11-13T02:55:59.403Z,0.00
2018-11-13T02:56:59.396Z,0.00
2018-11-13T02:57:59.394Z,0.00
2018-11-13T02:58:59.386Z,0.00
2018-11-13T02:59:59.372Z,0.00
2018-11-13T03:00:59.366Z,0.00
2018-11-13T03:01:59.360Z,0.00
2018-11-13T03:02:59.353Z,0.00
2018-11-13T03:03:59.349Z,0.00
2018-11-13T03:04:59.342Z,0.00
2018-11-13T03:05:59.334Z,0.00
2018-11-13T03:06:59.327Z,0.00
2018-11-13T03:07:59.314Z,0.00
2018-11-13T03:08:59.309Z,0.00
2018-11-13T03:09:59.299Z,0.00
2018-11-13T03:10:59.292Z,0.00
2018-11-13T03:11:59.294Z,0.00
2018-11-13T03:12:59.281Z,0.00
2018-11-13T03:13:59.282Z,0.00
2018-11-13T03:14:59.261Z,0.00
2018-11-13T03:15:59.259Z,0.00
2018-11-13T03:16:59.259Z,0.00
2018-11-13T03:17:59.249Z,0.00
2018-11-13T03:18:59.236Z,0.00
2018-11-13T03:19:59.223Z,0.00
2018-11-13T03:20:59.215Z,0.00
2018-11-13T03:21:59.209Z,0.00
2018-11-13T03:22:59.211Z,0.00
2018-11-13T03:23:59.197Z,0.00
2018-11-13T03:24:59.190Z,0.00
2018-11-13T03:25:59.182Z,0.00
2018-11-13T03:26:59.175Z,0.00
2018-11-13T03:27:59.162Z,0.00
2018-11-13T03:28:59.158Z,0.00
2018-11-13T03:29:59.152Z,0.00
2018-11-13T03:30:59.179Z,0.00
2018-11-13T03:31:59.131Z,0.00
2018-11-13T03:32:59.127Z,0.00
2018-11-13T03:33:59.118Z,0.00
2018-11-13T03:34:59.112Z,0.00
2018-11-13T03:35:59.107Z,0.00
2018-11-13T03:36:59.101Z,0.00
2018-11-13T03:37:59.093Z,0.00
2018-11-13T03:38:59.095Z,0.00
2018-11-13T03:39:59.075Z,0.00
2018-11-13T03:40:59.063Z,0.00
2018-11-13T03:41:59.056Z,0.00
2018-11-13T03:42:59.050Z,0.00
2018-11-13T03:43:59.044Z,0.00
2018-11-13T03:44:59.038Z,0.00
2018-11-13T03:45:59.030Z,0.00
2018-11-13T03:46:59.019Z,0.00
2018-11-13T03:47:59.016Z,0.00
2018-11-13T03:48:59.008Z,0.00
2018-11-13T03:49:59.002Z,0.00
2018-11-13T03:50:58.995Z,0.00
2018-11-13T03:51:58.984Z,0.00
2018-11-13T03:52:58.975Z,0.00
2018-11-13T03:53:58.970Z,0.00
2018-11-13T03:54:58.960Z,0.00
2018-11-13T03:55:58.958Z,0.00
2018-11-13T03:56:58.949Z,0.00
2018-11-13T03:57:58.941Z,0.00
2018-11-13T03:58:58.933Z,0.00
2018-11-13T03:59:58.920Z,0.00
2018-11-13T04:00:58.913Z,0.00
2018-11-13T04:01:58.911Z,0.00
2018-11-13T04:02:58.905Z,0.00
2018-11-13T04:03:58.892Z,0.00
2018-11-13T04:04:58.883Z,0.00
2018-11-13T04:05:58.877Z,0.00
2018-11-13T04:06:58.871Z,0.00
2018-11-13T04:07:58.865Z,0.00
2018-11-13T04:08:58.860Z,0.00
2018-11-13T04:09:58.852Z,0.00
2018-11-13T04:10:58.846Z,0.00
2018-11-13T04:11:58.832Z,0.00
2018-11-13T04:12:58.825Z,0.00
2018-11-13T04:13:58.817Z,0.00
2018-11-13T04:14:58.810Z,0.00
2018-11-13T04:15:58.807Z,0.00
2018-11-13T04:16:58.800Z,0.00
2018-11-13T04:17:58.787Z,0.00
2018-11-13T04:18:58.780Z,0.00
2018-11-13T04:19:58.776Z,0.00
2018-11-13T04:20:58.770Z,0.00
2018-11-13T04:21:58.764Z,0.00
2018-11-13T04:22:58.756Z,0.00
2018-11-13T04:23:58.742Z,0.00
2018-11-13T04:24:58.734Z,0.00
2018-11-13T04:25:58.728Z,0.00
2018-11-13T04:26:58.721Z,0.00
2018-11-13T04:27:58.718Z,0.00
2018-11-13T04:28:58.709Z,0.00
2018-11-13T04:29:58.704Z,0.00
2018-11-13T04:30:58.698Z,0.00
2018-11-13T04:31:58.684Z,0.00
2018-11-13T04:32:58.677Z,0.00
2018-11-13T04:33:58.674Z,0.00
2018-11-13T04:34:58.667Z,0.00
2018-11-13T04:35:58.654Z,0.00
2018-11-13T04:36:58.646Z,0.00
2018-11-13T04:37:58.640Z,0.00
2018-11-13T04:38:58.631Z,0.00
2018-11-13T04:39:58.630Z,0.00
2018-11-13T04:40:58.620Z,0.00
2018-11-13T04:41:58.663Z,0.00
2018-11-13T04:42:58.608Z,0.00
2018-11-13T04:43:58.594Z,0.00
2018-11-13T04:44:58.588Z,0.00
2018-11-13T04:45:58.583Z,0.00
2018-11-13T04:46:58.574Z,0.00
2018-11-13T04:47:58.570Z,0.00
2018-11-13T04:48:58.561Z,0.00
2018-11-13T04:49:58.551Z,0.00
2018-11-13T04:50:58.544Z,0.00
2018-11-13T04:51:58.547Z,0.00
2018-11-13T04:52:58.533Z,0.00
2018-11-13T04:53:58.525Z,0.00
2018-11-13T04:54:58.517Z,0.00
2018-11-13T04:55:58.506Z,0.00
2018-11-13T04:56:58.499Z,0.00
2018-11-13T04:57:58.490Z,0.00
2018-11-13T04:58:58.483Z,0.00
2018-11-13T04:59:58.481Z,0.00
2018-11-13T05:00:58.472Z,0.00
2018-11-13T05:01:58.470Z,0.00
2018-11-13T05:02:58.515Z,0.00
2018-11-13T05:03:58.447Z,0.00
2018-11-13T05:04:58.439Z,0.00
2018-11-13T05:05:58.437Z,0.00
2018-11-13T05:06:58.430Z,0.00
2018-11-13T05:07:58.415Z,0.00
2018-11-13T05:08:58.409Z,0.00
2018-11-13T05:09:58.425Z,0.00
2018-11-13T05:10:58.393Z,0.00
2018-11-13T05:11:58.390Z,0.00
2018-11-13T05:12:58.382Z,0.00
2018-11-13T05:13:58.376Z,0.00
2018-11-13T05:14:58.378Z,0.00
2018-11-13T05:15:58.363Z,0.00
2018-11-13T05:16:58.349Z,0.00
2018-11-13T05:17:58.341Z,0.00
2018-11-13T05:18:58.337Z,0.00
2018-11-13T05:19:58.331Z,0.00
2018-11-13T05:20:58.325Z,0.00
2018-11-13T05:21:58.312Z,0.00
2018-11-13T05:22:58.366Z,0.00
2018-11-13T05:23:58.302Z,0.00
2018-11-13T05:24:58.295Z,0.00
2018-11-13T05:25:58.286Z,0.00
2018-11-13T05:26:58.280Z,0.00
2018-11-13T05:27:58.267Z,0.00
2018-11-13T05:28:58.259Z,0.00
2018-11-13T05:29:58.253Z,0.00
2018-11-13T05:30:58.245Z,0.00
2018-11-13T05:31:58.242Z,0.00
2018-11-13T05:32:58.236Z,0.00
2018-11-13T05:33:58.228Z,0.00
2018-11-13T05:34:58.220Z,0.00
2018-11-13T05:35:58.214Z,0.00
2018-11-13T05:36:58.201Z,0.00
2018-11-13T05:37:58.197Z,0.00
2018-11-13T05:38:58.189Z,0.00
2018-11-13T05:39:58.178Z,0.00
2018-11-13T05:40:58.170Z,0.00
2018-11-13T05:41:58.165Z,0.00
2018-11-13T05:42:58.157Z,0.00
2018-11-13T05:43:58.153Z,0.00
2018-11-13T05:44:58.146Z,0.00
2018-11-13T05:45:58.139Z,0.00
2018-11-13T05:46:58.153Z,0.00
2018-11-13T05:47:58.117Z,0.00
2018-11-13T05:48:58.111Z,0.00
2018-11-13T05:49:58.102Z,0.00
2018-11-13T05:50:58.095Z,0.00
2018-11-13T05:51:58.092Z,0.00
2018-11-13T05:52:58.096Z,0.00
2018-11-13T05:53:58.071Z,0.00
2018-11-13T05:54:58.066Z,0.00
2018-11-13T05:55:58.061Z,0.00
2018-11-13T05:56:58.054Z,0.00
2018-11-13T05:57:58.047Z,0.00
2018-11-13T05:58:58.041Z,0.00
2018-11-13T05:59:58.099Z,0.00
2018-11-13T06:00:58.020Z,0.00
2018-11-13T06:01:58.011Z,0.00
2018-11-13T06:02:58.008Z,0.00
2018-11-13T06:03:58.001Z,0.00
2018-11-13T06:04:57.993Z,0.00
2018-11-13T06:05:57.984Z,0.00
2018-11-13T06:06:57.977Z,0.00
2018-11-13T06:07:57.965Z,0.00
2018-11-13T06:08:57.959Z,0.00
2018-11-13T06:09:57.953Z,0.00
2018-11-13T06:10:57.946Z,0.00
2018-11-13T06:11:57.934Z,0.00
2018-11-13T06:12:57.926Z,0.00
2018-11-13T06:13:57.974Z,0.00
2018-11-13T06:14:57.912Z,0.00
2018-11-13T06:15:57.908Z,0.00
2018-11-13T06:16:57.900Z,0.00
2018-11-13T06:17:57.947Z,4.00
2018-11-13T06:18:57.884Z,4.00
2018-11-13T06:19:57.872Z,0.00
2018-11-13T06:20:57.864Z,4.00
2018-11-13T06:21:57.856Z,8.00
2018-11-13T06:22:57.910Z,8.00
2018-11-13T06:23:57.891Z,8.00
2018-11-13T06:24:57.837Z,12.00
2018-11-13T06:25:57.825Z,12.00
2018-11-13T06:26:57.817Z,16.00
2018-11-13T06:27:57.815Z,20.00
2018-11-13T06:28:57.806Z,24.00
2018-11-13T06:29:57.800Z,32.00
2018-11-13T06:30:57.793Z,32.00
2018-11-13T06:31:57.778Z,40.00
2018-11-13T06:32:57.771Z,44.00
2018-11-13T06:33:57.764Z,48.00
2018-11-13T06:34:57.756Z,60.00
2018-11-13T06:35:57.751Z,64.00
2018-11-13T06:36:57.745Z,72.00
2018-11-13T06:37:57.738Z,76.00
2018-11-13T06:38:57.787Z,84.00
2018-11-13T06:39:57.717Z,88.00
2018-11-13T06:40:57.708Z,100.00
2018-11-13T06:41:57.706Z,108.00
2018-11-13T06:42:57.699Z,120.00
2018-11-13T06:43:57.691Z,132.00
2018-11-13T06:44:57.677Z,144.00
2018-11-13T06:45:57.669Z,152.00
2018-11-13T06:46:57.664Z,164.00
2018-11-13T06:47:57.659Z,172.00
2018-11-13T06:48:57.710Z,176.00
2018-11-13T06:49:57.643Z,188.00
2018-11-13T06:50:57.636Z,200.00
2018-11-13T06:51:57.623Z,212.00
2018-11-13T06:52:57.619Z,224.00
2018-11-13T06:53:57.609Z,236.00
2018-11-13T06:54:57.612Z,248.00
2018-11-13T06:55:57.597Z,264.00
2018-11-13T06:56:57.589Z,280.00
2018-11-13T06:57:57.577Z,276.00
2018-11-13T06:58:57.570Z,276.00
2018-11-13T06:59:57.566Z,268.00
2018-11-13T07:00:57.563Z,252.00
2018-11-13T07:01:57.550Z,264.00
2018-11-13T07:02:57.543Z,272.00
2018-11-13T07:03:57.529Z,268.00
2018-11-13T07:04:57.560Z,252.00
2018-11-13T07:05:57.522Z,220.00
2018-11-13T07:06:57.508Z,216.00
2018-11-13T07:07:57.504Z,232.00
2018-11-13T07:08:57.498Z,244.00
2018-11-13T07:09:57.491Z,260.00
2018-11-13T07:10:57.567Z,260.00
2018-11-13T07:11:57.469Z,272.00
2018-11-13T07:12:57.462Z,288.00
2018-11-13T07:13:57.461Z,284.00
2018-11-13T07:14:57.452Z,268.00
2018-11-13T07:15:57.440Z,260.00
2018-11-13T07:16:57.432Z,300.00
2018-11-13T07:17:57.425Z,316.00
2018-11-13T07:18:57.418Z,332.00
2018-11-13T07:19:57.414Z,320.00
2018-11-13T07:20:57.408Z,340.00
2018-11-13T07:21:57.399Z,336.00
2018-11-13T07:22:57.394Z,456.00
2018-11-13T07:23:57.381Z,516.00
2018-11-13T07:24:57.377Z,520.00
2018-11-13T07:25:57.368Z,484.00
2018-11-13T07:26:57.368Z,596.00
2018-11-13T07:27:57.364Z,624.00
2018-11-13T07:28:57.349Z,612.00
2018-11-13T07:29:57.336Z,616.00
2018-11-13T07:30:57.330Z,792.00
2018-11-13T07:31:57.327Z,928.00
2018-11-13T07:32:57.324Z,1000.00
2018-11-13T07:33:57.313Z,952.00
2018-11-13T07:34:57.305Z,912.00
2018-11-13T07:35:57.293Z,872.00
2018-11-13T07:36:57.286Z,984.00
2018-11-13T07:37:57.286Z,1048.00
2018-11-13T07:38:57.277Z,1080.00
2018-11-13T07:39:57.265Z,1112.00
2018-11-13T07:40:57.265Z,1100.00
2018-11-13T07:41:57.250Z,1092.00
2018-11-13T07:42:57.245Z,1104.00
2018-11-13T07:43:57.241Z,1076.00
2018-11-13T07:44:57.233Z,1176.00
2018-11-13T07:45:57.222Z,1216.00
2018-11-13T07:46:57.267Z,1248.00
2018-11-13T07:47:57.347Z,1356.00
2018-11-13T07:48:57.205Z,1540.00
2018-11-13T07:49:57.198Z,1720.00
2018-11-13T07:50:57.251Z,1844.00
2018-11-13T07:51:57.178Z,1848.00
2018-11-13T07:52:57.172Z,1728.00
2018-11-13T07:53:57.247Z,1624.00
2018-11-13T07:54:57.159Z,1620.00
2018-11-13T07:55:57.155Z,1504.00
2018-11-13T07:56:57.151Z,1376.00
2018-11-13T07:57:57.141Z,1284.00
2018-11-13T07:58:57.135Z,1256.00
2018-11-13T07:59:57.122Z,1224.00
2018-11-13T08:00:57.116Z,1192.00
2018-11-13T08:01:57.116Z,1176.00
2018-11-13T08:02:57.105Z,1292.00
2018-11-13T08:03:57.095Z,1480.00
2018-11-13T08:04:57.089Z,1828.00
2018-11-13T08:05:57.081Z,1956.00
2018-11-13T08:06:57.075Z,2328.00
2018-11-13T08:07:57.072Z,2576.00
2018-11-13T08:08:57.065Z,2716.00
2018-11-13T08:09:57.058Z,2852.00
2018-11-13T08:10:57.052Z,3104.00
2018-11-13T08:11:57.039Z,3184.00
2018-11-13T08:12:57.149Z,3060.00
2018-11-13T08:13:57.026Z,2792.00
2018-11-13T08:14:57.018Z,2568.00
2018-11-13T08:15:57.016Z,2512.00
2018-11-13T08:16:57.008Z,2592.00
2018-11-13T08:17:56.997Z,2776.00
2018-11-13T08:18:57.036Z,3880.00
2018-11-13T08:19:56.989Z,2184.00
2018-11-13T08:20:56.987Z,2316.00
2018-11-13T08:21:57.017Z,2300.00
2018-11-13T08:22:56.969Z,2488.00
2018-11-13T08:23:56.957Z,2332.00
2018-11-13T08:24:56.951Z,2516.00
2018-11-13T08:25:56.943Z,2768.00
2018-11-13T08:26:57.015Z,3340.00
2018-11-13T08:27:56.974Z,4384.00
2018-11-13T08:28:57.007Z,4832.00
2018-11-13T08:29:56.920Z,5068.00
2018-11-13T08:30:56.915Z,5284.00
2018-11-13T08:31:56.902Z,5720.00
2018-11-13T08:32:56.953Z,6640.00
2018-11-13T08:33:56.899Z,7356.00
2018-11-13T08:34:56.997Z,8104.00
2018-11-13T08:35:56.876Z,8896.00
2018-11-13T08:36:56.871Z,9828.00
2018-11-13T08:37:56.869Z,10960.00
2018-11-13T08:38:56.860Z,11472.00
2018-11-13T08:39:56.858Z,11820.00
2018-11-13T08:40:56.853Z,11272.00
2018-11-13T08:41:56.847Z,11108.00
2018-11-13T08:42:56.843Z,11832.00
2018-11-13T08:43:56.866Z,12388.00
2018-11-13T08:44:56.827Z,13140.00
2018-11-13T08:45:56.824Z,14624.00
2018-11-13T08:46:56.821Z,15264.00
2018-11-13T08:47:56.824Z,13508.00
2018-11-13T08:48:56.819Z,12508.00
2018-11-13T08:49:56.813Z,10988.00
2018-11-13T08:50:56.877Z,9888.00
2018-11-13T08:51:56.812Z,7588.00
2018-11-13T08:52:56.811Z,14176.00
2018-11-13T08:53:56.810Z,7468.00
2018-11-13T08:54:56.812Z,12316.00
2018-11-13T08:55:56.801Z,7236.00
2018-11-13T08:56:56.800Z,13728.00
2018-11-13T08:57:56.800Z,12220.00
2018-11-13T08:58:56.852Z,15040.00
2018-11-13T08:59:56.802Z,11484.00
2018-11-13T09:00:56.802Z,5404.00
2018-11-13T09:01:56.802Z,5452.00
2018-11-13T09:02:56.802Z,5316.00
2018-11-13T09:03:56.799Z,5608.00
2018-11-13T09:04:56.857Z,6864.00
2018-11-13T09:05:56.802Z,5840.00
2018-11-13T09:06:56.803Z,5040.00
2018-11-13T09:07:56.796Z,4568.00
2018-11-13T09:08:56.797Z,3772.00
2018-11-13T09:09:56.796Z,3548.00
2018-11-13T09:10:56.795Z,3076.00
2018-11-13T09:11:56.939Z,3196.00
2018-11-13T09:12:56.798Z,3012.00
2018-11-13T09:13:56.796Z,3464.00
2018-11-13T09:14:56.796Z,3016.00
2018-11-13T09:15:56.788Z,3036.00
2018-11-13T09:16:56.787Z,2764.00
2018-11-13T09:17:56.808Z,2412.00
2018-11-13T09:18:56.877Z,2328.00
2018-11-13T09:19:56.787Z,2672.00
2018-11-13T09:20:56.785Z,2812.00
2018-11-13T09:21:56.778Z,2624.00
2018-11-13T09:22:56.776Z,2600.00
2018-11-13T09:23:56.777Z,2720.00
2018-11-13T09:24:56.774Z,3044.00
2018-11-13T09:25:56.770Z,2816.00
2018-11-13T09:26:56.768Z,2308.00
2018-11-13T09:27:56.758Z,2584.00
2018-11-13T09:28:56.757Z,2448.00
2018-11-13T09:29:56.826Z,2696.00
2018-11-13T09:30:57.047Z,3164.00
2018-11-13T09:31:56.780Z,3160.00
2018-11-13T09:32:56.767Z,3372.00
2018-11-13T09:33:56.746Z,4592.00
2018-11-13T09:34:56.741Z,4980.00
2018-11-13T09:35:56.731Z,5312.00
2018-11-13T09:36:56.726Z,5280.00
2018-11-13T09:37:56.728Z,4008.00
2018-11-13T09:38:56.726Z,4168.00
2018-11-13T09:39:56.714Z,7044.00
2018-11-13T09:40:56.712Z,6224.00
2018-11-13T09:41:56.709Z,7476.00
2018-11-13T09:42:56.725Z,6764.00
2018-11-13T09:43:56.702Z,5564.00
2018-11-13T09:44:56.828Z,4356.00
2018-11-13T09:45:56.839Z,4696.00
2018-11-13T09:46:56.690Z,5396.00
2018-11-13T09:47:56.681Z,7448.00
2018-11-13T09:48:56.677Z,5860.00
2018-11-13T09:49:56.671Z,3976.00
2018-11-13T09:50:56.669Z,4496.00
2018-11-13T09:51:56.667Z,3284.00
2018-11-13T09:52:56.663Z,5540.00
2018-11-13T09:53:56.656Z,5860.00
2018-11-13T09:54:56.771Z,5292.00
2018-11-13T09:55:56.650Z,6440.00
2018-11-13T09:56:56.646Z,4824.00
2018-11-13T09:57:56.646Z,6780.00
2018-11-13T09:58:56.694Z,4364.00
2018-11-13T09:59:56.709Z,5128.00
2018-11-13T10:00:56.843Z,4268.00
2018-11-13T10:01:57.005Z,13548.00
2018-11-13T10:02:57.287Z,13832.00
2018-11-13T10:03:57.227Z,7760.00
2018-11-13T10:04:57.219Z,11588.00
2018-11-13T10:05:56.671Z,20032.00
2018-11-13T10:06:56.632Z,13428.00
2018-11-13T10:07:56.597Z,7240.00
2018-11-13T10:08:56.594Z,16896.00
2018-11-13T10:09:56.594Z,14284.00
2018-11-13T10:10:56.595Z,13028.00
2018-11-13T10:11:56.583Z,18912.00
2018-11-13T10:12:56.580Z,17472.00
2018-11-13T10:13:56.578Z,8428.00
2018-11-13T10:14:56.575Z,5628.00
2018-11-13T10:15:56.581Z,4440.00
2018-11-13T10:16:56.576Z,3684.00
2018-11-13T10:17:56.752Z,5868.00
2018-11-13T10:18:56.572Z,7124.00
2018-11-13T10:19:56.564Z,5532.00
2018-11-13T10:20:56.563Z,6076.00
2018-11-13T10:21:56.561Z,12812.00
2018-11-13T10:22:56.561Z,4344.00
2018-11-13T10:23:56.562Z,3496.00
2018-11-13T10:24:56.561Z,5436.00
2018-11-13T10:25:56.555Z,6988.00
2018-11-13T10:26:56.565Z,6168.00
2018-11-13T10:27:56.555Z,6148.00
2018-11-13T10:28:56.555Z,5380.00
2018-11-13T10:29:56.558Z,2692.00
2018-11-13T10:30:56.552Z,4308.00
2018-11-13T10:31:56.544Z,4148.00
2018-11-13T10:32:56.542Z,3508.00
2018-11-13T10:33:56.543Z,2564.00
2018-11-13T10:34:56.537Z,3272.00
2018-11-13T10:35:56.540Z,3164.00
2018-11-13T10:36:56.536Z,2428.00
2018-11-13T10:37:56.535Z,1676.00
2018-11-13T10:38:56.531Z,1852.00
2018-11-13T10:39:56.636Z,3448.00
2018-11-13T10:40:56.662Z,3076.00
2018-11-13T10:41:56.521Z,3612.00
2018-11-13T10:42:56.519Z,4888.00
2018-11-13T10:43:56.514Z,4560.00
2018-11-13T10:44:56.507Z,4464.00
2018-11-13T10:45:56.504Z,4972.00
2018-11-13T10:46:56.500Z,4088.00
2018-11-13T10:47:56.500Z,4512.00
2018-11-13T10:48:56.514Z,5224.00
2018-11-13T10:49:56.494Z,4700.00
2018-11-13T10:50:56.489Z,3896.00
2018-11-13T10:51:56.488Z,3132.00
2018-11-13T10:52:56.476Z,3032.00
2018-11-13T10:53:56.473Z,3292.00
2018-11-13T10:54:56.469Z,2916.00
2018-11-13T10:55:56.469Z,7348.00
2018-11-13T10:56:56.464Z,2532.00
2018-11-13T10:57:56.456Z,2192.00
2018-11-13T10:58:56.451Z,2256.00
2018-11-13T10:59:56.452Z,3052.00
2018-11-13T11:00:56.448Z,3192.00
2018-11-13T11:01:56.442Z,2944.00
2018-11-13T11:02:56.577Z,4116.00
2018-11-13T11:03:56.429Z,5540.00
2018-11-13T11:04:56.424Z,5412.00
2018-11-13T11:05:56.421Z,7412.00
2018-11-13T11:06:56.418Z,8848.00
2018-11-13T11:07:56.415Z,7268.00
2018-11-13T11:08:56.414Z,5324.00
2018-11-13T11:09:56.411Z,4092.00
2018-11-13T11:10:56.404Z,4616.00
2018-11-13T11:11:56.391Z,6272.00
2018-11-13T11:12:56.511Z,4196.00
2018-11-13T11:13:56.526Z,4408.00
2018-11-13T11:14:56.386Z,5560.00
2018-11-13T11:15:56.374Z,5656.00
2018-11-13T11:16:56.371Z,6104.00
2018-11-13T11:17:56.367Z,3620.00
2018-11-13T11:18:56.483Z,3100.00
2018-11-13T11:19:56.360Z,3424.00
2018-11-13T11:20:56.356Z,3448.00
2018-11-13T11:21:56.352Z,4556.00
2018-11-13T11:22:56.357Z,4776.00
2018-11-13T11:23:56.377Z,3908.00
2018-11-13T11:24:56.334Z,3248.00
2018-11-13T11:25:56.329Z,3356.00
2018-11-13T11:26:56.326Z,2416.00
2018-11-13T11:27:56.408Z,2196.00
2018-11-13T11:28:56.320Z,2740.00
2018-11-13T11:29:56.312Z,4580.00
2018-11-13T11:30:56.323Z,4364.00
2018-11-13T11:31:56.307Z,5816.00
2018-11-13T11:32:56.304Z,6516.00
2018-11-13T11:33:56.299Z,6184.00
2018-11-13T11:34:56.291Z,7772.00
2018-11-13T11:35:56.283Z,8124.00
2018-11-13T11:36:56.278Z,8496.00
2018-11-13T11:37:56.272Z,8736.00
2018-11-13T11:38:56.531Z,6172.00
2018-11-13T11:39:56.267Z,6820.00
2018-11-13T11:40:56.264Z,7312.00
2018-11-13T11:41:56.260Z,7924.00
2018-11-13T11:42:56.255Z,5424.00
2018-11-13T11:43:56.250Z,6148.00
2018-11-13T11:44:56.242Z,5432.00
2018-11-13T11:45:56.245Z,3440.00
2018-11-13T11:46:56.244Z,3840.00
2018-11-13T11:47:56.228Z,5360.00
2018-11-13T11:48:56.226Z,6276.00
2018-11-13T11:49:56.245Z,6372.00
2018-11-13T11:50:56.217Z,6924.00
2018-11-13T11:51:56.215Z,6428.00
2018-11-13T11:52:56.212Z,5368.00
2018-11-13T11:53:56.263Z,3988.00
2018-11-13T11:54:56.204Z,3416.00
2018-11-13T11:55:56.195Z,3292.00
2018-11-13T11:56:56.191Z,4840.00
2018-11-13T11:57:56.186Z,5660.00
2018-11-13T11:58:56.188Z,6080.00
2018-11-13T11:59:56.183Z,6120.00
2018-11-13T12:00:56.182Z,5280.00
2018-11-13T12:01:56.171Z,5468.00
2018-11-13T12:02:56.166Z,5788.00
2018-11-13T12:03:56.197Z,4200.00
2018-11-13T12:04:56.162Z,4296.00
2018-11-13T12:05:56.157Z,3876.00
2018-11-13T12:06:56.154Z,3388.00
2018-11-13T12:07:56.178Z,3100.00
2018-11-13T12:08:56.142Z,3072.00
2018-11-13T12:09:56.136Z,2888.00
2018-11-13T12:10:56.132Z,2880.00
2018-11-13T12:11:56.132Z,3532.00
2018-11-13T12:12:56.127Z,3020.00
2018-11-13T12:13:56.130Z,2932.00
2018-11-13T12:14:56.121Z,2440.00
2018-11-13T12:15:56.113Z,2204.00
2018-11-13T12:16:56.107Z,2240.00
2018-11-13T12:17:56.107Z,2668.00
2018-11-13T12:18:56.160Z,3400.00
2018-11-13T12:19:56.104Z,4296.00
2018-11-13T12:20:56.252Z,3988.00
2018-11-13T12:21:56.085Z,3740.00
2018-11-13T12:22:56.107Z,3380.00
2018-11-13T12:23:56.080Z,4712.00
2018-11-13T12:24:56.075Z,6496.00
2018-11-13T12:25:56.127Z,5364.00
2018-11-13T12:26:56.067Z,5184.00
2018-11-13T12:27:56.058Z,4696.00
2018-11-13T12:28:56.053Z,5376.00
2018-11-13T12:29:56.048Z,5268.00
2018-11-13T12:30:56.045Z,4380.00
2018-11-13T12:31:56.045Z,4984.00
2018-11-13T12:32:56.042Z,5132.00
2018-11-13T12:33:56.032Z,5796.00
2018-11-13T12:34:56.026Z,4504.00
2018-11-13T12:35:56.027Z,3812.00
2018-11-13T12:36:56.025Z,2840.00
2018-11-13T12:37:56.018Z,2188.00
2018-11-13T12:38:56.014Z,2000.00
2018-11-13T12:39:56.004Z,2092.00
2018-11-13T12:40:56.043Z,2292.00
2018-11-13T12:41:55.996Z,2808.00